ソウル/仁川 の空港の天気 - METARとTAF

仁川国際空港 ( RKSI / ICN ) - 大韓民国 仁川広域市 (ソウル特別市近郊)
飛行場実況気象(Metar)
観測時間01/20 10:30 KST (01/20 01:30 UTC)
風向・風速北西 10m/s
視程5000m
天気現象もや
少しの雲 雲底高度 610m
全天の8割程度の雲 雲底高度 3660m
気温-4℃
湿度74%
気圧1022hPa
METARRKSI 200130Z 32019KT 5000 BR FEW020 BKN120 M04/M08 Q1022 NOSIG
過去の天気等 Google飛行場航空写真 Wunderground天気予報

過去48時間のMETAR

飛行場予報(TAF)
発表時間: 1/20 08:00 KST (1/19 23:00 UTC)
予報対象時間: 20日9時 KST ~ 21日15時 KST
風向・風速北北西 9m/s 瞬間風速 18m/s
視程6,000m
全天の4割程度の雲 雲底高度 910m
20日9時 KST ~ 20日11時 KST に一時的に
少しの雲 雲底高度 300m
全天の8割程度の雲 雲底高度 910m
20日19時 KST ~ 20日20時 KST に徐々に
風向・風速北北西 6m/s
視程10km以上
なし
21日2時 KST ~ 21日3時 KST に徐々に
風向・風速北東 3m/s
21日10時 KST ~ 21日11時 KST に徐々に
風向・風速南南東 3m/s
視程6,000m
少しの雲 雲底高度 300m
全天の4割程度の雲 雲底高度 910m
TAF RKSI 192300Z 2000/2106 33018G35KT 6000 SCT030 TXM02/2005Z TNM09/2021Z TXM02/2105Z
TEMPO 2000/2002 FEW010 BKN030
BECMG 2010/2011 33012KT CAVOK
BECMG 2017/2018 04006KT
BECMG 2101/2102 15006KT 6000 FEW010 SCT030